sensor_id;sensor_type;location;lat;lon;timestamp;pressure;altitude;pressure_sealevel;temperature;humidity
5703;BME280;2876;51.738;10.050;2023-02-25T00:04:18;97678.31;;;3.10;100.00
5703;BME280;2876;51.738;10.050;2023-02-25T00:10:20;97667.91;;;3.09;100.00
5703;BME280;2876;51.738;10.050;2023-02-25T00:16:23;97667.38;;;3.20;100.00
5703;BME280;2876;51.738;10.050;2023-02-25T00:22:27;97663.94;;;3.26;100.00
5703;BME280;2876;51.738;10.050;2023-02-25T00:28:29;97679.47;;;3.36;100.00
5703;BME280;2876;51.738;10.050;2023-02-25T00:34:30;97683.59;;;3.38;100.00
5703;BME280;2876;51.738;10.050;2023-02-25T00:40:37;97686.84;;;3.40;100.00
5703;BME280;2876;51.738;10.050;2023-02-25T00:46:39;97680.59;;;3.48;100.00
5703;BME280;2876;51.738;10.050;2023-02-25T00:52:41;97686.94;;;3.53;100.00
5703;BME280;2876;51.738;10.050;2023-02-25T00:58:46;97682.06;;;3.57;100.00
5703;BME280;2876;51.738;10.050;2023-02-25T01:04:48;97688.53;;;3.48;100.00
5703;BME280;2876;51.738;10.050;2023-02-25T01:10:50;97685.50;;;3.51;100.00
5703;BME280;2876;51.738;10.050;2023-02-25T01:16:54;97696.06;;;3.44;100.00
5703;BME280;2876;51.738;10.050;2023-02-25T01:22:58;97686.44;;;3.37;100.00
5703;BME280;2876;51.738;10.050;2023-02-25T01:29:01;97688.69;;;3.40;100.00
5703;BME280;2876;51.738;10.050;2023-02-25T01:35:06;97689.00;;;3.58;100.00
5703;BME280;2876;51.738;10.050;2023-02-25T01:41:08;97685.28;;;3.46;99.98
5703;BME280;2876;51.738;10.050;2023-02-25T01:47:19;97687.09;;;3.45;99.05
5703;BME280;2876;51.738;10.050;2023-02-25T01:53:32;97683.28;;;3.54;99.12
5703;BME280;2876;51.738;10.050;2023-02-25T01:59:38;97679.97;;;3.46;99.98
5703;BME280;2876;51.738;10.050;2023-02-25T02:06:17;97686.81;;;3.34;100.00
5703;BME280;2876;51.738;10.050;2023-02-25T02:12:19;97681.28;;;3.28;100.00
5703;BME280;2876;51.738;10.050;2023-02-25T02:18:21;97676.94;;;3.21;100.00
5703;BME280;2876;51.738;10.050;2023-02-25T02:50:44;97714.25;;;3.54;96.70
5703;BME280;2876;51.738;10.050;2023-02-25T02:56:48;97721.00;;;3.56;96.18
5703;BME280;2876;51.738;10.050;2023-02-25T03:03:03;97738.59;;;3.64;96.17
5703;BME280;2876;51.738;10.050;2023-02-25T03:09:26;97743.03;;;3.57;96.02
5703;BME280;2876;51.738;10.050;2023-02-25T03:15:32;97744.28;;;3.61;96.06
5703;BME280;2876;51.738;10.050;2023-02-25T03:21:41;97751.25;;;3.69;94.79
5703;BME280;2876;51.738;10.050;2023-02-25T03:27:47;97761.38;;;3.59;95.47
5703;BME280;2876;51.738;10.050;2023-02-25T03:34:06;97767.97;;;3.69;94.28
5703;BME280;2876;51.738;10.050;2023-02-25T03:40:12;97772.63;;;3.61;94.03
5703;BME280;2876;51.738;10.050;2023-02-25T03:46:18;97774.81;;;3.57;93.42
5703;BME280;2876;51.738;10.050;2023-02-25T03:52:22;97793.47;;;3.70;92.73
5703;BME280;2876;51.738;10.050;2023-02-25T03:58:25;97801.63;;;3.69;92.03
5703;BME280;2876;51.738;10.050;2023-02-25T04:04:27;97807.31;;;3.66;90.76
5703;BME280;2876;51.738;10.050;2023-02-25T04:10:29;97817.66;;;3.61;89.72
5703;BME280;2876;51.738;10.050;2023-02-25T04:16:31;97829.53;;;3.65;88.67
5703;BME280;2876;51.738;10.050;2023-02-25T04:22:33;97840.94;;;3.37;90.20
5703;BME280;2876;51.738;10.050;2023-02-25T04:28:35;97834.09;;;3.49;91.28
5703;BME280;2876;51.738;10.050;2023-02-25T04:34:37;97838.78;;;3.47;90.51
5703;BME280;2876;51.738;10.050;2023-02-25T04:40:39;97837.00;;;3.54;90.46
5703;BME280;2876;51.738;10.050;2023-02-25T04:46:42;97844.75;;;3.56;89.93
5703;BME280;2876;51.738;10.050;2023-02-25T04:52:44;97849.69;;;3.59;89.90
5703;BME280;2876;51.738;10.050;2023-02-25T04:58:46;97847.78;;;3.53;89.54
5703;BME280;2876;51.738;10.050;2023-02-25T05:04:48;97855.25;;;3.43;90.45
5703;BME280;2876;51.738;10.050;2023-02-25T05:10:50;97853.91;;;3.53;91.40
5703;BME280;2876;51.738;10.050;2023-02-25T05:16:52;97864.59;;;3.67;91.84
5703;BME280;2876;51.738;10.050;2023-02-25T05:22:54;97860.75;;;3.69;93.07
5703;BME280;2876;51.738;10.050;2023-02-25T05:28:56;97859.06;;;3.62;92.11
5703;BME280;2876;51.738;10.050;2023-02-25T05:34:58;97860.09;;;3.61;92.61
5703;BME280;2876;51.738;10.050;2023-02-25T05:41:01;97854.22;;;3.65;90.81
5703;BME280;2876;51.738;10.050;2023-02-25T05:47:04;97856.03;;;3.65;91.11
5703;BME280;2876;51.738;10.050;2023-02-25T05:53:08;97865.06;;;3.49;91.38
5703;BME280;2876;51.738;10.050;2023-02-25T05:59:11;97861.72;;;3.62;91.80
5703;BME280;2876;51.738;10.050;2023-02-25T06:05:13;97869.19;;;3.79;91.24
5703;BME280;2876;51.738;10.050;2023-02-25T06:11:28;97880.97;;;3.70;88.26
5703;BME280;2876;51.738;10.050;2023-02-25T06:17:30;97893.03;;;3.51;89.35
5703;BME280;2876;51.738;10.050;2023-02-25T06:23:37;97898.34;;;3.51;88.69
5703;BME280;2876;51.738;10.050;2023-02-25T06:29:39;97915.38;;;3.42;87.58
5703;BME280;2876;51.738;10.050;2023-02-25T06:35:42;97915.81;;;3.24;86.38
5703;BME280;2876;51.738;10.050;2023-02-25T06:41:44;97924.19;;;3.28;86.34
5703;BME280;2876;51.738;10.050;2023-02-25T06:47:46;97937.63;;;3.26;85.64
5703;BME280;2876;51.738;10.050;2023-02-25T06:53:48;97945.44;;;3.35;85.71
5703;BME280;2876;51.738;10.050;2023-02-25T06:59:51;97956.50;;;3.38;85.07
5703;BME280;2876;51.738;10.050;2023-02-25T07:05:54;97964.22;;;3.54;83.86
5703;BME280;2876;51.738;10.050;2023-02-25T07:11:56;97976.78;;;3.46;84.66
5703;BME280;2876;51.738;10.050;2023-02-25T07:17:58;97995.88;;;3.41;85.40
5703;BME280;2876;51.738;10.050;2023-02-25T07:24:00;97986.22;;;3.34;83.97
5703;BME280;2876;51.738;10.050;2023-02-25T07:30:03;98000.47;;;3.33;84.26
5703;BME280;2876;51.738;10.050;2023-02-25T07:36:05;98006.88;;;3.23;84.75
5703;BME280;2876;51.738;10.050;2023-02-25T07:42:07;98020.00;;;3.31;84.06
5703;BME280;2876;51.738;10.050;2023-02-25T07:48:10;98028.53;;;3.12;83.74
5703;BME280;2876;51.738;10.050;2023-02-25T07:54:12;98048.34;;;3.16;83.82
5703;BME280;2876;51.738;10.050;2023-02-25T08:00:15;98055.28;;;3.32;82.63
5703;BME280;2876;51.738;10.050;2023-02-25T08:06:19;98055.00;;;3.42;80.15
5703;BME280;2876;51.738;10.050;2023-02-25T08:12:21;98071.88;;;3.55;78.36
5703;BME280;2876;51.738;10.050;2023-02-25T08:18:23;98071.03;;;3.70;77.97
5703;BME280;2876;51.738;10.050;2023-02-25T08:24:25;98080.59;;;4.07;75.40
5703;BME280;2876;51.738;10.050;2023-02-25T08:30:27;98077.50;;;4.25;75.99
5703;BME280;2876;51.738;10.050;2023-02-25T08:36:30;98085.25;;;4.48;74.55
5703;BME280;2876;51.738;10.050;2023-02-25T08:42:32;98090.09;;;4.44;74.76
5703;BME280;2876;51.738;10.050;2023-02-25T08:48:35;98089.19;;;4.58;72.29
5703;BME280;2876;51.738;10.050;2023-02-25T08:54:38;98084.38;;;4.41;73.13
5703;BME280;2876;51.738;10.050;2023-02-25T09:00:40;98082.09;;;4.59;71.97
5703;BME280;2876;51.738;10.050;2023-02-25T09:06:43;98091.00;;;4.51;71.12
5703;BME280;2876;51.738;10.050;2023-02-25T09:12:48;98095.28;;;4.52;70.81
5703;BME280;2876;51.738;10.050;2023-02-25T09:18:50;98099.34;;;4.48;70.24
5703;BME280;2876;51.738;10.050;2023-02-25T09:24:52;98102.97;;;4.41;68.48
5703;BME280;2876;51.738;10.050;2023-02-25T09:30:56;98118.81;;;4.34;69.97
5703;BME280;2876;51.738;10.050;2023-02-25T09:37:02;98102.53;;;4.37;68.57
5703;BME280;2876;51.738;10.050;2023-02-25T09:43:27;98116.72;;;4.08;69.93
5703;BME280;2876;51.738;10.050;2023-02-25T09:49:59;98115.97;;;4.14;68.38
5703;BME280;2876;51.738;10.050;2023-02-25T09:56:05;98126.97;;;4.32;67.56
5703;BME280;2876;51.738;10.050;2023-02-25T10:15:45;98142.38;;;5.56;64.87
5703;BME280;2876;51.738;10.050;2023-02-25T10:28:26;98151.22;;;5.28;64.65
5703;BME280;2876;51.738;10.050;2023-02-25T10:34:29;98168.00;;;5.29;65.19
5703;BME280;2876;51.738;10.050;2023-02-25T10:40:33;98170.66;;;5.29;64.46
5703;BME280;2876;51.738;10.050;2023-02-25T10:46:56;98190.28;;;5.28;67.17
5703;BME280;2876;51.738;10.050;2023-02-25T10:53:17;98187.81;;;5.26;67.39
5703;BME280;2876;51.738;10.050;2023-02-25T10:59:38;98192.06;;;5.21;70.24
5703;BME280;2876;51.738;10.050;2023-02-25T11:05:41;98201.78;;;5.35;71.01
5703;BME280;2876;51.738;10.050;2023-02-25T11:12:14;98213.53;;;5.54;73.24
5703;BME280;2876;51.738;10.050;2023-02-25T11:18:27;98243.66;;;4.83;75.59
5703;BME280;2876;51.738;10.050;2023-02-25T11:24:33;98255.78;;;3.69;80.05
5703;BME280;2876;51.738;10.050;2023-02-25T11:30:38;98250.63;;;3.23;83.80
5703;BME280;2876;51.738;10.050;2023-02-25T11:36:41;98249.09;;;3.06;86.02
5703;BME280;2876;51.738;10.050;2023-02-25T11:42:43;98244.88;;;3.35;88.37
5703;BME280;2876;51.738;10.050;2023-02-25T11:49:13;98255.41;;;3.72;86.59
5703;BME280;2876;51.738;10.050;2023-02-25T11:55:41;98262.38;;;3.73;86.40
5703;BME280;2876;51.738;10.050;2023-02-25T12:02:25;98256.69;;;3.62;85.31
5703;BME280;2876;51.738;10.050;2023-02-25T12:28:08;98279.53;;;4.73;77.02
5703;BME280;2876;51.738;10.050;2023-02-25T12:34:42;98289.84;;;4.82;76.10
5703;BME280;2876;51.738;10.050;2023-02-25T13:00:50;98323.09;;;5.64;69.73
5703;BME280;2876;51.738;10.050;2023-02-25T13:07:50;98333.22;;;5.54;69.70
5703;BME280;2876;51.738;10.050;2023-02-25T13:20:54;98338.66;;;4.45;73.01
5703;BME280;2876;51.738;10.050;2023-02-25T13:53:20;98359.88;;;3.02;85.38
5703;BME280;2876;51.738;10.050;2023-02-25T14:26:12;98425.19;;;2.87;82.89
5703;BME280;2876;51.738;10.050;2023-02-25T14:32:38;98430.47;;;2.32;85.89
5703;BME280;2876;51.738;10.050;2023-02-25T14:45:42;98440.84;;;2.58;84.64
5703;BME280;2876;51.738;10.050;2023-02-25T14:52:37;98459.22;;;2.59;82.17
5703;BME280;2876;51.738;10.050;2023-02-25T15:25:42;98494.22;;;3.17;76.88
5703;BME280;2876;51.738;10.050;2023-02-25T15:32:24;98501.53;;;3.15;73.55
5703;BME280;2876;51.738;10.050;2023-02-25T15:38:49;98518.34;;;2.91;72.29
5703;BME280;2876;51.738;10.050;2023-02-25T15:44:52;98531.06;;;2.95;71.91
5703;BME280;2876;51.738;10.050;2023-02-25T15:50:54;98546.59;;;2.98;71.06
5703;BME280;2876;51.738;10.050;2023-02-25T15:56:59;98546.09;;;2.95;71.66
5703;BME280;2876;51.738;10.050;2023-02-25T16:03:02;98556.25;;;2.91;71.09
5703;BME280;2876;51.738;10.050;2023-02-25T16:09:25;98573.44;;;2.95;72.27
5703;BME280;2876;51.738;10.050;2023-02-25T16:15:34;98576.94;;;3.27;69.85
5703;BME280;2876;51.738;10.050;2023-02-25T16:21:44;98572.66;;;3.65;68.73
5703;BME280;2876;51.738;10.050;2023-02-25T16:28:17;98590.03;;;3.28;68.68
5703;BME280;2876;51.738;10.050;2023-02-25T16:34:49;98596.16;;;2.73;67.75
5703;BME280;2876;51.738;10.050;2023-02-25T16:40:53;98607.25;;;2.44;70.37
5703;BME280;2876;51.738;10.050;2023-02-25T16:46:56;98649.41;;;2.54;72.46
5703;BME280;2876;51.738;10.050;2023-02-25T16:52:58;98647.06;;;2.10;78.26
5703;BME280;2876;51.738;10.050;2023-02-25T17:05:35;98644.59;;;1.58;78.44
5703;BME280;2876;51.738;10.050;2023-02-25T17:11:38;98659.63;;;1.58;78.06
5703;BME280;2876;51.738;10.050;2023-02-25T17:17:40;98683.56;;;1.56;79.13
5703;BME280;2876;51.738;10.050;2023-02-25T17:23:44;98688.00;;;1.47;80.09
5703;BME280;2876;51.738;10.050;2023-02-25T17:29:47;98691.94;;;1.17;79.90
5703;BME280;2876;51.738;10.050;2023-02-25T17:35:51;98702.38;;;0.75;81.43
5703;BME280;2876;51.738;10.050;2023-02-25T17:41:54;98698.38;;;0.71;82.97
5703;BME280;2876;51.738;10.050;2023-02-25T17:47:56;98719.28;;;0.64;83.77
5703;BME280;2876;51.738;10.050;2023-02-25T17:54:06;98723.56;;;0.65;84.56
5703;BME280;2876;51.738;10.050;2023-02-25T18:00:23;98728.22;;;0.54;84.67
5703;BME280;2876;51.738;10.050;2023-02-25T18:06:42;98735.22;;;0.45;85.80
5703;BME280;2876;51.738;10.050;2023-02-25T18:12:46;98740.50;;;0.45;85.79
5703;BME280;2876;51.738;10.050;2023-02-25T18:18:50;98742.88;;;0.66;85.35
5703;BME280;2876;51.738;10.050;2023-02-25T18:24:57;98757.78;;;0.93;79.80
5703;BME280;2876;51.738;10.050;2023-02-25T18:30:59;98755.81;;;0.77;81.36
5703;BME280;2876;51.738;10.050;2023-02-25T18:37:01;98759.16;;;0.61;81.21
5703;BME280;2876;51.738;10.050;2023-02-25T18:43:05;98751.97;;;0.71;82.54
5703;BME280;2876;51.738;10.050;2023-02-25T18:49:07;98750.31;;;0.70;82.74
5703;BME280;2876;51.738;10.050;2023-02-25T18:55:18;98761.25;;;0.58;83.64
5703;BME280;2876;51.738;10.050;2023-02-25T19:01:23;98759.31;;;0.60;83.94
5703;BME280;2876;51.738;10.050;2023-02-25T19:07:32;98762.69;;;0.70;81.38
5703;BME280;2876;51.738;10.050;2023-02-25T19:13:38;98775.34;;;0.66;78.92
5703;BME280;2876;51.738;10.050;2023-02-25T19:19:41;98786.72;;;0.67;77.71
5703;BME280;2876;51.738;10.050;2023-02-25T19:25:54;98783.25;;;0.66;77.39
5703;BME280;2876;51.738;10.050;2023-02-25T19:31:56;98791.03;;;0.50;79.27
5703;BME280;2876;51.738;10.050;2023-02-25T19:37:59;98797.72;;;0.44;80.69
5703;BME280;2876;51.738;10.050;2023-02-25T19:44:01;98793.16;;;0.19;81.76
5703;BME280;2876;51.738;10.050;2023-02-25T19:50:04;98803.53;;;0.20;81.98
5703;BME280;2876;51.738;10.050;2023-02-25T19:56:07;98809.03;;;0.27;82.41
5703;BME280;2876;51.738;10.050;2023-02-25T20:02:10;98814.56;;;0.34;81.83
5703;BME280;2876;51.738;10.050;2023-02-25T20:08:13;98818.69;;;0.18;82.00
5703;BME280;2876;51.738;10.050;2023-02-25T20:14:15;98827.03;;;0.14;81.84
5703;BME280;2876;51.738;10.050;2023-02-25T20:20:18;98835.19;;;0.20;81.49
5703;BME280;2876;51.738;10.050;2023-02-25T20:26:20;98851.22;;;0.37;80.90
5703;BME280;2876;51.738;10.050;2023-02-25T20:32:25;98853.84;;;0.37;81.29
5703;BME280;2876;51.738;10.050;2023-02-25T20:38:35;98851.66;;;0.32;80.31
5703;BME280;2876;51.738;10.050;2023-02-25T20:44:39;98865.06;;;0.39;80.49
5703;BME280;2876;51.738;10.050;2023-02-25T20:50:42;98867.75;;;0.29;80.32
5703;BME280;2876;51.738;10.050;2023-02-25T20:56:45;98870.72;;;0.44;79.63
5703;BME280;2876;51.738;10.050;2023-02-25T21:02:47;98884.56;;;0.28;79.59
5703;BME280;2876;51.738;10.050;2023-02-25T21:08:50;98882.75;;;0.29;79.57
5703;BME280;2876;51.738;10.050;2023-02-25T21:14:52;98886.38;;;0.18;80.03
5703;BME280;2876;51.738;10.050;2023-02-25T21:21:04;98897.25;;;0.15;79.85
5703;BME280;2876;51.738;10.050;2023-02-25T21:27:08;98890.88;;;0.08;79.54
5703;BME280;2876;51.738;10.050;2023-02-25T21:33:10;98896.00;;;0.09;79.35
5703;BME280;2876;51.738;10.050;2023-02-25T21:39:12;98910.84;;;0.10;78.62
5703;BME280;2876;51.738;10.050;2023-02-25T21:45:14;98921.00;;;0.05;77.17
5703;BME280;2876;51.738;10.050;2023-02-25T21:51:20;98924.34;;;-0.03;76.53
5703;BME280;2876;51.738;10.050;2023-02-25T21:57:23;98918.44;;;0.13;74.51
5703;BME280;2876;51.738;10.050;2023-02-25T22:03:24;98927.66;;;0.09;74.70
5703;BME280;2876;51.738;10.050;2023-02-25T22:09:27;98932.97;;;0.27;73.78
5703;BME280;2876;51.738;10.050;2023-02-25T22:15:29;98935.53;;;0.19;74.01
5703;BME280;2876;51.738;10.050;2023-02-25T22:21:33;98945.53;;;0.15;74.18
5703;BME280;2876;51.738;10.050;2023-02-25T22:27:36;98942.19;;;0.23;75.17
5703;BME280;2876;51.738;10.050;2023-02-25T22:33:38;98942.22;;;0.04;77.04
5703;BME280;2876;51.738;10.050;2023-02-25T22:39:40;98954.09;;;0.17;79.43
5703;BME280;2876;51.738;10.050;2023-02-25T22:45:43;98966.34;;;0.18;80.85
5703;BME280;2876;51.738;10.050;2023-02-25T22:51:45;98964.41;;;0.11;82.03
5703;BME280;2876;51.738;10.050;2023-02-25T22:57:48;98985.28;;;0.32;82.43
5703;BME280;2876;51.738;10.050;2023-02-25T23:03:53;98985.13;;;0.43;81.64
5703;BME280;2876;51.738;10.050;2023-02-25T23:09:55;98986.84;;;0.24;81.59
5703;BME280;2876;51.738;10.050;2023-02-25T23:16:00;98996.41;;;0.25;81.73
5703;BME280;2876;51.738;10.050;2023-02-25T23:22:02;99002.28;;;0.19;81.35
5703;BME280;2876;51.738;10.050;2023-02-25T23:28:07;99017.13;;;0.11;81.58
5703;BME280;2876;51.738;10.050;2023-02-25T23:34:13;99019.09;;;-0.20;82.22
5703;BME280;2876;51.738;10.050;2023-02-25T23:40:15;99026.16;;;-0.21;82.37
5703;BME280;2876;51.738;10.050;2023-02-25T23:46:18;99029.38;;;-0.27;82.88
5703;BME280;2876;51.738;10.050;2023-02-25T23:52:20;99047.91;;;-0.48;83.29
5703;BME280;2876;51.738;10.050;2023-02-25T23:58:22;99054.00;;;-0.47;83.77
